Time;durP1;ratioP1;P1;durP2;ratioP2;P2;SDS_P1;SDS_P2;PMS_P1;PMS_P2;Temp;Humidity;BMP_temperature;BMP_pressure;BME280_temperature;BME280_humidity;BME280_pressure;Samples;Min_cycle;Max_cycle;Signal;HPM_P1;HPM_P2
2021/12/24 00:01:19;;;;;;;1.83;1.73;;;22.20;62.10;;;;;;5073118;28;20440;-63
2021/12/24 00:03:47;;;;;;;2.43;1.90;;;22.20;62.10;;;;;;5073526;28;20435;-63
2021/12/24 00:06:14;;;;;;;2.00;1.90;;;22.20;62.10;;;;;;5073256;28;20440;-63
2021/12/24 00:08:42;;;;;;;2.73;1.70;;;22.20;62.10;;;;;;5073079;28;20517;-63
2021/12/24 00:11:09;;;;;;;2.30;2.10;;;22.20;62.20;;;;;;5073104;28;20460;-63
2021/12/24 00:13:41;;;;;;;1.80;1.70;;;22.20;62.10;;;;;;5073172;28;20432;-63
2021/12/24 00:16:17;;;;;;;1.90;1.77;;;22.20;62.20;;;;;;5073071;28;20455;-63
2021/12/24 00:18:49;;;;;;;2.30;2.10;;;22.20;62.20;;;;;;5072977;28;20491;-63
2021/12/24 00:35:14;;;;;;;1.90;1.80;;;22.20;62.30;;;;;;5077081;28;20411;-63
2021/12/24 00:37:43;;;;;;;2.00;1.90;;;22.20;62.30;;;;;;5076891;28;20436;-63
2021/12/24 00:40:15;;;;;;;1.93;1.73;;;22.20;62.40;;;;;;5076629;28;20492;-64
2021/12/24 00:42:46;;;;;;;1.70;1.60;;;22.20;62.40;;;;;;5076815;28;20487;-63
2021/12/24 00:45:14;;;;;;;2.10;1.90;;;22.20;62.40;;;;;;5076856;28;20446;-63
2021/12/24 00:47:41;;;;;;;1.50;1.40;;;22.20;62.40;;;;;;5076836;28;20441;-64
2021/12/24 00:50:14;;;;;;;2.10;2.00;;;22.20;62.40;;;;;;5076538;28;20489;-64
2021/12/24 00:52:48;;;;;;;2.33;2.10;;;22.20;62.40;;;;;;5076644;28;20447;-63
2021/12/24 00:55:14;;;;;;;2.30;2.10;;;22.20;62.40;;;;;;5076710;28;20489;-64
2021/12/24 00:57:45;;;;;;;1.80;1.70;;;22.20;62.40;;;;;;5076602;28;20447;-63
2021/12/24 01:00:14;;;;;;;2.20;2.00;;;22.20;62.40;;;;;;5076518;28;20483;-63
2021/12/24 01:02:42;;;;;;;1.97;1.87;;;22.20;62.50;;;;;;5076684;28;20443;-63
2021/12/24 01:05:11;;;;;;;1.83;1.73;;;22.20;62.50;;;;;;5076621;28;20440;-63
2021/12/24 01:07:38;;;;;;;1.73;1.63;;;22.20;62.50;;;;;;5076297;28;20789;-63
2021/12/24 01:10:06;;;;;;;1.77;1.67;;;22.20;62.50;;;;;;5076038;28;20463;-63
2021/12/24 01:12:33;;;;;;;1.50;1.40;;;22.20;62.50;;;;;;5076111;28;20444;-64
2021/12/24 01:14:59;;;;;;;2.10;1.93;;;22.20;62.50;;;;;;5076133;28;20429;-64
2021/12/24 01:17:38;;;;;;;2.50;2.30;;;22.20;62.60;;;;;;5076054;28;20429;-63
2021/12/24 01:20:15;;;;;;;2.23;2.13;;;22.30;62.70;;;;;;5076156;28;21005;-64
2021/12/24 01:25:33;;;;;;;1.93;1.70;;;22.20;62.60;;;;;;5076135;28;20506;-63
2021/12/24 01:39:08;;;;;;;1.63;1.53;;;22.20;62.80;;;;;;5075931;28;20970;-63
2021/12/24 01:44:26;;;;;;;1.40;1.30;;;22.20;62.90;;;;;;5075658;28;20419;-63
2021/12/24 01:46:54;;;;;;;1.63;1.53;;;22.20;62.90;;;;;;5075700;28;20447;-63
2021/12/24 01:49:21;;;;;;;2.47;2.27;;;22.20;62.90;;;;;;5075358;28;20923;-64
2021/12/24 01:51:47;;;;;;;1.70;1.60;;;22.20;62.90;;;;;;5075863;28;20445;-64
2021/12/24 01:54:15;;;;;;;1.67;1.57;;;22.20;62.90;;;;;;5075514;28;20433;-63
2021/12/24 01:56:43;;;;;;;1.80;1.70;;;22.20;62.80;;;;;;5075577;28;20442;-64
2021/12/24 01:59:10;;;;;;;2.40;1.60;;;22.20;62.90;;;;;;5075226;28;20485;-63
2021/12/24 02:01:37;;;;;;;1.30;1.20;;;22.20;62.90;;;;;;5075304;28;20765;-63
2021/12/24 02:04:05;;;;;;;1.60;1.50;;;22.20;63.00;;;;;;5075445;28;20452;-63
2021/12/24 02:06:32;;;;;;;1.57;1.47;;;22.20;63.00;;;;;;5075139;28;20499;-63
2021/12/24 02:08:59;;;;;;;1.87;1.77;;;22.20;63.00;;;;;;5075165;28;20449;-63
2021/12/24 02:11:27;;;;;;;1.80;1.70;;;22.20;63.00;;;;;;5075036;28;20460;-63
2021/12/24 02:13:54;;;;;;;1.37;1.27;;;22.20;63.00;;;;;;5075175;28;20433;-64
2021/12/24 02:16:36;;;;;;;1.57;1.47;;;22.20;63.00;;;;;;5074903;28;20444;-63
2021/12/24 02:30:06;;;;;;;1.47;1.37;;;22.20;63.20;;;;;;5074780;28;20428;-63
2021/12/24 02:32:33;;;;;;;1.53;1.40;;;22.20;63.20;;;;;;5074516;28;20445;-63
2021/12/24 02:35:01;;;;;;;1.93;1.70;;;22.20;63.20;;;;;;5074630;28;20808;-63
2021/12/24 02:37:29;;;;;;;1.57;1.47;;;22.20;63.30;;;;;;5074543;28;20924;-63
2021/12/24 02:39:56;;;;;;;1.63;1.53;;;22.20;63.20;;;;;;5074206;28;20499;-64
2021/12/24 02:42:23;;;;;;;2.00;1.87;;;22.20;63.20;;;;;;5074387;28;20528;-63
2021/12/24 02:44:52;;;;;;;1.50;1.40;;;22.20;63.20;;;;;;5074421;28;20864;-64
2021/12/24 02:55:31;;;;;;;1.40;1.30;;;22.20;63.30;;;;;;5074263;28;20510;-63
2021/12/24 02:57:58;;;;;;;1.57;1.47;;;22.20;63.40;;;;;;5074403;28;20892;-63
2021/12/24 03:00:27;;;;;;;1.57;1.47;;;22.20;63.30;;;;;;5074068;28;20488;-63
2021/12/24 03:02:55;;;;;;;1.33;1.20;;;22.20;63.30;;;;;;5074093;28;20480;-63
2021/12/24 03:05:24;;;;;;;1.50;1.40;;;22.20;63.30;;;;;;5074108;28;20968;-63
2021/12/24 03:07:52;;;;;;;1.60;1.50;;;22.20;63.40;;;;;;5074016;28;20432;-63
2021/12/24 03:10:22;;;;;;;1.70;1.53;;;22.20;63.40;;;;;;5073833;28;20453;-63
2021/12/24 03:12:51;;;;;;;1.40;1.30;;;22.20;63.40;;;;;;5073829;28;20803;-64
2021/12/24 03:15:18;;;;;;;1.60;1.50;;;22.20;63.40;;;;;;5073720;28;20445;-65
2021/12/24 03:17:50;;;;;;;1.30;1.20;;;22.20;63.40;;;;;;5073971;28;20437;-63
2021/12/24 03:20:17;;;;;;;2.00;1.90;;;22.20;63.40;;;;;;5073601;28;20524;-64
2021/12/24 03:22:50;;;;;;;1.40;1.30;;;22.20;63.40;;;;;;5073958;28;20928;-63
2021/12/24 03:25:18;;;;;;;1.50;1.40;;;22.20;63.50;;;;;;5073758;28;20436;-64
2021/12/24 03:27:45;;;;;;;2.50;1.70;;;22.20;63.50;;;;;;5073677;28;20444;-63
2021/12/24 03:30:13;;;;;;;1.40;1.30;;;22.20;63.60;;;;;;5073456;28;20441;-63
2021/12/24 03:32:40;;;;;;;2.17;2.07;;;22.20;63.60;;;;;;5073457;28;20797;-63
2021/12/24 03:35:08;;;;;;;1.73;1.63;;;22.20;63.50;;;;;;5073584;28;20436;-63
2021/12/24 03:37:34;;;;;;;1.40;1.30;;;22.20;63.60;;;;;;5073384;28;20446;-63
2021/12/24 03:40:01;;;;;;;1.70;1.40;;;22.20;63.60;;;;;;5073110;28;20562;-63
2021/12/24 03:42:29;;;;;;;1.40;1.30;;;22.20;63.60;;;;;;5073443;28;20433;-63
2021/12/24 03:45:06;;;;;;;1.30;1.20;;;22.20;63.60;;;;;;5073476;28;20468;-63
2021/12/24 03:47:37;;;;;;;1.40;1.23;;;22.20;63.60;;;;;;5073532;28;20449;-63
2021/12/24 03:50:09;;;;;;;1.53;1.43;;;22.20;63.70;;;;;;5073369;28;20498;-63
2021/12/24 03:53:00;;;;;;;1.50;1.40;;;22.20;63.60;;;;;;5073381;28;20448;-63
2021/12/24 03:55:25;;;;;;;1.30;1.20;;;22.20;63.70;;;;;;5073344;28;20519;-63
2021/12/24 03:57:53;;;;;;;1.30;1.20;;;22.20;63.70;;;;;;5073213;28;20825;-63
2021/12/24 04:00:23;;;;;;;1.60;1.50;;;22.20;63.70;;;;;;5073134;28;20990;-63
2021/12/24 04:02:50;;;;;;;1.40;1.30;;;22.20;63.80;;;;;;5073105;28;20444;-63
2021/12/24 04:05:17;;;;;;;3.10;1.57;;;22.20;63.70;;;;;;5072743;28;20440;-63
2021/12/24 04:07:45;;;;;;;2.03;1.80;;;22.20;63.70;;;;;;5073045;28;20437;-63
2021/12/24 04:10:20;;;;;;;1.77;1.53;;;22.20;63.80;;;;;;5073206;28;20487;-63
2021/12/24 04:12:46;;;;;;;1.53;1.43;;;22.20;63.80;;;;;;5073289;28;20437;-64
2021/12/24 04:15:14;;;;;;;1.53;1.43;;;22.20;63.80;;;;;;5073240;28;20437;-63
2021/12/24 04:17:43;;;;;;;1.40;1.30;;;22.20;63.80;;;;;;5073133;28;20436;-63
2021/12/24 04:25:39;;;;;;;2.00;1.60;;;22.20;63.90;;;;;;5073373;28;20551;-63
2021/12/24 04:28:05;;;;;;;1.60;1.50;;;22.20;63.90;;;;;;5072956;28;20436;-63
2021/12/24 04:30:44;;;;;;;1.90;1.50;;;22.20;64.00;;;;;;5072949;28;20790;-63
2021/12/24 04:33:16;;;;;;;1.70;1.60;;;22.20;63.90;;;;;;5072912;28;20441;-63
2021/12/24 04:35:46;;;;;;;1.63;1.33;;;22.20;63.90;;;;;;5072908;28;20433;-63
2021/12/24 04:52:02;;;;;;;1.83;1.73;;;22.20;64.20;;;;;;5073017;28;20417;-63
2021/12/24 05:02:54;;;;;;;1.60;1.50;;;22.20;64.20;;;;;;5072729;28;20426;-63
2021/12/24 05:05:24;;;;;;;1.40;1.30;;;22.20;64.20;;;;;;5072655;28;20440;-63
2021/12/24 05:10:42;;;;;;;1.90;1.67;;;22.20;64.20;;;;;;5072577;28;20467;-63
2021/12/24 05:13:10;;;;;;;1.53;1.43;;;22.20;64.20;;;;;;5072543;28;20447;-63
2021/12/24 05:15:39;;;;;;;1.53;1.43;;;22.20;65.10;;;;;;5072734;28;20834;-63
2021/12/24 05:18:27;;;;;;;1.90;1.80;;;22.20;64.20;;;;;;5073865;28;20448;-63
2021/12/24 05:23:39;;;;;;;1.80;1.70;;;22.20;64.20;;;;;;5076011;28;20558;-63
2021/12/24 05:26:06;;;;;;;1.63;1.53;;;22.20;64.20;;;;;;5075998;28;20441;-63
2021/12/24 05:28:33;;;;;;;2.00;1.77;;;22.20;64.30;;;;;;5075846;28;20505;-63
2021/12/24 05:31:00;;;;;;;1.90;1.77;;;22.20;64.20;;;;;;5075989;28;20448;-63
2021/12/24 05:33:28;;;;;;;1.90;1.50;;;22.20;64.30;;;;;;5075638;28;20447;-63
2021/12/24 05:35:55;;;;;;;1.87;1.77;;;22.20;64.20;;;;;;5075735;28;20444;-63
2021/12/24 05:38:22;;;;;;;1.80;1.63;;;22.20;64.20;;;;;;5075829;28;20804;-63
2021/12/24 05:40:48;;;;;;;1.63;1.53;;;22.20;64.30;;;;;;5075397;28;20492;-63
2021/12/24 05:43:15;;;;;;;1.80;1.70;;;22.20;64.30;;;;;;5075714;28;20439;-63
2021/12/24 05:45:42;;;;;;;1.90;1.80;;;22.20;64.30;;;;;;5075795;28;20442;-63
2021/12/24 05:48:09;;;;;;;1.90;1.80;;;22.30;64.40;;;;;;5075778;28;20444;-63
2021/12/24 05:50:37;;;;;;;1.70;1.60;;;22.20;64.30;;;;;;5075721;28;20788;-63
2021/12/24 05:53:03;;;;;;;1.70;1.60;;;22.30;64.40;;;;;;5075608;28;20440;-63
2021/12/24 05:55:30;;;;;;;1.70;1.60;;;22.30;64.40;;;;;;5075562;28;20776;-63
2021/12/24 05:57:57;;;;;;;2.23;1.97;;;22.20;64.30;;;;;;5075466;28;20796;-63
2021/12/24 06:00:24;;;;;;;1.60;1.50;;;22.20;64.30;;;;;;5075347;28;21022;-63
2021/12/24 06:02:51;;;;;;;1.90;1.70;;;22.30;64.40;;;;;;5075411;28;20448;-64
2021/12/24 06:05:17;;;;;;;1.70;1.60;;;22.30;64.50;;;;;;5075382;28;20432;-63
2021/12/24 06:07:45;;;;;;;1.73;1.63;;;22.30;64.50;;;;;;5075105;28;20433;-63
2021/12/24 06:10:12;;;;;;;2.60;1.57;;;22.30;64.50;;;;;;5075039;28;20854;-63
2021/12/24 06:12:39;;;;;;;1.90;1.80;;;22.30;64.50;;;;;;5075129;28;20436;-63
2021/12/24 06:15:08;;;;;;;1.70;1.60;;;22.30;64.50;;;;;;5075031;28;20788;-63
2021/12/24 06:17:37;;;;;;;2.00;1.90;;;22.30;64.60;;;;;;5075015;28;20444;-64
2021/12/24 06:20:06;;;;;;;1.90;1.70;;;22.30;64.60;;;;;;5074724;28;20555;-63
2021/12/24 06:22:33;;;;;;;2.00;1.90;;;22.30;64.60;;;;;;5074898;28;20447;-63
2021/12/24 06:25:01;;;;;;;1.60;1.50;;;22.30;64.60;;;;;;5074887;28;20497;-63
2021/12/24 06:27:27;;;;;;;7.17;1.57;;;22.30;64.70;;;;;;5074632;28;20441;-64
2021/12/24 06:29:54;;;;;;;2.50;1.60;;;22.20;65.00;;;;;;5074499;28;20935;-63
2021/12/24 06:32:21;;;;;;;1.77;1.67;;;22.20;65.00;;;;;;5074657;28;20444;-63
2021/12/24 06:34:49;;;;;;;1.80;1.70;;;22.20;65.10;;;;;;5074571;28;20771;-63
2021/12/24 06:37:16;;;;;;;1.57;1.47;;;22.20;65.20;;;;;;5074610;28;20472;-63
2021/12/24 06:39:42;;;;;;;2.13;2.00;;;22.20;65.20;;;;;;5074289;28;20530;-64
2021/12/24 06:42:11;;;;;;;2.13;1.73;;;22.20;65.20;;;;;;5074431;28;20448;-63
2021/12/24 06:44:38;;;;;;;1.60;1.50;;;22.20;65.20;;;;;;5074523;28;20444;-63
2021/12/24 06:47:05;;;;;;;1.93;1.83;;;22.20;65.20;;;;;;5074464;28;20432;-63
2021/12/24 06:49:32;;;;;;;2.27;1.97;;;22.20;65.20;;;;;;5074208;28;20440;-63
2021/12/24 06:51:58;;;;;;;2.47;2.27;;;22.20;65.20;;;;;;5074332;28;20436;-63
2021/12/24 06:54:25;;;;;;;1.57;1.47;;;22.20;65.20;;;;;;5074413;28;20438;-63
2021/12/24 06:56:52;;;;;;;2.37;2.10;;;22.20;65.20;;;;;;5074303;28;20455;-63
2021/12/24 06:59:20;;;;;;;6.10;2.03;;;22.20;65.20;;;;;;5074420;28;20440;-63
2021/12/24 07:01:47;;;;;;;1.97;1.87;;;22.20;65.20;;;;;;5073978;28;20484;-63
2021/12/24 07:04:14;;;;;;;2.50;2.30;;;22.20;65.20;;;;;;5074047;28;20819;-63
2021/12/24 07:06:45;;;;;;;1.50;1.40;;;22.20;65.20;;;;;;5074267;28;20456;-63
2021/12/24 07:09:12;;;;;;;1.90;1.80;;;22.20;65.20;;;;;;5074011;28;20441;-63
2021/12/24 07:11:40;;;;;;;1.80;1.70;;;22.20;65.20;;;;;;5074006;28;20432;-63
2021/12/24 07:14:06;;;;;;;1.90;1.80;;;22.20;65.20;;;;;;5073923;28;20440;-63
2021/12/24 07:16:35;;;;;;;1.80;1.70;;;22.20;65.20;;;;;;5073823;28;20444;-63
2021/12/24 07:19:03;;;;;;;2.10;1.90;;;22.20;65.20;;;;;;5073735;28;20437;-63
2021/12/24 07:21:29;;;;;;;2.07;1.97;;;22.20;65.20;;;;;;5073652;28;20480;-63
2021/12/24 07:23:56;;;;;;;1.97;1.87;;;22.20;65.30;;;;;;5073779;28;20915;-63
2021/12/24 07:26:23;;;;;;;2.10;1.90;;;22.20;65.20;;;;;;5073870;28;20440;-63
2021/12/24 07:28:49;;;;;;;2.43;1.80;;;22.20;65.20;;;;;;5073584;28;20938;-63
2021/12/24 07:31:16;;;;;;;3.10;1.80;;;22.20;65.30;;;;;;5073648;28;20437;-63
2021/12/24 07:33:44;;;;;;;3.10;2.70;;;22.20;65.30;;;;;;5073851;28;20440;-63
2021/12/24 07:36:11;;;;;;;1.77;1.67;;;22.20;65.30;;;;;;5073605;28;20441;-63
2021/12/24 07:38:38;;;;;;;1.63;1.53;;;22.20;65.30;;;;;;5073384;28;20864;-63
2021/12/24 07:41:05;;;;;;;1.60;1.50;;;22.20;65.30;;;;;;5072587;28;20821;-63
2021/12/24 07:43:32;;;;;;;2.00;1.90;;;22.20;65.30;;;;;;5073483;28;20433;-63
2021/12/24 07:45:59;;;;;;;1.90;1.67;;;22.20;65.30;;;;;;5073424;28;20445;-63
2021/12/24 07:48:28;;;;;;;2.17;1.90;;;22.20;65.40;;;;;;5073385;28;20445;-63
2021/12/24 07:53:44;;;;;;;1.97;1.87;;;22.20;65.30;;;;;;5073951;28;20424;-63
2021/12/24 07:56:11;;;;;;;2.57;2.37;;;22.10;65.40;;;;;;5073440;28;20446;-63
2021/12/24 07:58:38;;;;;;;2.10;2.00;;;22.20;65.40;;;;;;5073275;28;20921;-63
2021/12/24 08:01:04;;;;;;;1.70;1.60;;;22.20;65.40;;;;;;5073339;28;20578;-63
2021/12/24 08:03:31;;;;;;;2.37;2.27;;;22.20;65.40;;;;;;5073294;28;20440;-63
2021/12/24 08:05:59;;;;;;;1.90;1.80;;;22.20;65.40;;;;;;5073463;28;20446;-63
2021/12/24 08:08:26;;;;;;;1.90;1.80;;;22.20;65.40;;;;;;5073283;28;20442;-63
2021/12/24 08:10:52;;;;;;;2.20;2.00;;;22.20;65.40;;;;;;5072688;28;20469;-63
2021/12/24 08:13:19;;;;;;;2.17;2.07;;;22.20;65.40;;;;;;5073097;28;20769;-63
2021/12/24 08:15:49;;;;;;;1.90;1.80;;;22.20;65.40;;;;;;5072980;28;20440;-63
2021/12/24 08:18:16;;;;;;;1.97;1.80;;;22.20;65.40;;;;;;5069774;28;20487;-63
2021/12/24 08:20:43;;;;;;;2.00;1.90;;;22.20;65.40;;;;;;5072881;28;20480;-63
2021/12/24 08:23:11;;;;;;;2.60;2.40;;;22.20;65.40;;;;;;5073175;28;20437;-63
2021/12/24 08:25:38;;;;;;;2.77;2.47;;;22.10;66.20;;;;;;5073101;28;20464;-63
2021/12/24 08:28:05;;;;;;;2.10;2.00;;;22.10;65.90;;;;;;5072987;28;20441;-63
2021/12/24 08:30:32;;;;;;;2.07;1.97;;;22.10;65.80;;;;;;5072928;28;20433;-63
2021/12/24 08:33:00;;;;;;;2.20;2.10;;;22.10;65.80;;;;;;5072906;28;20533;-63
2021/12/24 08:35:28;;;;;;;3.47;2.27;;;22.20;65.90;;;;;;5072959;28;20460;-63
2021/12/24 08:37:55;;;;;;;2.47;2.27;;;22.20;65.90;;;;;;5072789;28;20523;-63
2021/12/24 08:40:24;;;;;;;3.53;2.20;;;22.20;65.80;;;;;;5072599;28;20480;-63
2021/12/24 08:42:51;;;;;;;2.70;2.50;;;22.20;65.80;;;;;;5072720;28;20465;-63
2021/12/24 08:45:18;;;;;;;2.20;2.00;;;22.20;65.80;;;;;;5073053;28;20486;-63
2021/12/24 08:47:45;;;;;;;2.20;2.10;;;22.20;65.70;;;;;;5072683;28;20443;-63
2021/12/24 08:50:13;;;;;;;2.10;2.00;;;22.20;65.70;;;;;;5072788;28;20439;-63
2021/12/24 08:52:42;;;;;;;3.67;1.80;;;22.20;65.70;;;;;;5075275;28;20474;-63
2021/12/24 08:55:10;;;;;;;2.07;1.87;;;22.20;65.70;;;;;;5076640;28;20536;-63
2021/12/24 08:57:38;;;;;;;2.13;1.93;;;22.20;65.70;;;;;;5076424;28;20470;-63
2021/12/24 09:00:08;;;;;;;2.20;2.10;;;22.20;65.60;;;;;;5076278;28;20444;-63
2021/12/24 09:02:35;;;;;;;2.03;1.93;;;22.20;65.60;;;;;;5076297;28;20483;-63
2021/12/24 09:05:02;;;;;;;2.00;1.90;;;22.20;65.60;;;;;;5076241;28;20447;-63
2021/12/24 09:07:28;;;;;;;2.40;2.30;;;22.20;65.60;;;;;;5076579;28;20447;-63
2021/12/24 09:09:55;;;;;;;2.70;1.70;;;22.20;65.60;;;;;;5076113;28;20483;-63
2021/12/24 09:12:22;;;;;;;1.80;1.70;;;22.20;65.70;;;;;;5076296;28;20436;-63
2021/12/24 09:14:50;;;;;;;1.80;1.70;;;22.20;65.60;;;;;;5076101;28;20919;-63
2021/12/24 09:17:17;;;;;;;2.17;2.07;;;22.20;65.70;;;;;;5076218;28;20444;-63
2021/12/24 09:19:48;;;;;;;2.27;2.17;;;22.10;65.60;;;;;;5076337;28;20437;-63
2021/12/24 09:22:17;;;;;;;2.03;1.93;;;22.20;65.60;;;;;;5075825;28;20973;-63
2021/12/24 09:24:45;;;;;;;2.60;2.10;;;22.10;65.60;;;;;;5076153;28;20768;-63
2021/12/24 09:27:12;;;;;;;3.70;2.10;;;22.20;65.70;;;;;;5075807;28;20436;-63
2021/12/24 09:29:39;;;;;;;2.17;2.07;;;22.20;65.80;;;;;;5074883;28;20432;-62
2021/12/24 09:32:08;;;;;;;2.10;1.90;;;22.20;66.00;;;;;;5063393;28;20441;-63
2021/12/24 09:34:36;;;;;;;2.47;2.27;;;22.20;65.90;;;;;;5054196;28;20452;-63
2021/12/24 09:37:03;;;;;;;2.40;1.97;;;22.20;65.90;;;;;;5057256;28;20951;-63
2021/12/24 09:39:30;;;;;;;15.40;5.60;;;22.20;66.00;;;;;;5054529;28;20473;-64
2021/12/24 09:41:58;;;;;;;3.27;3.03;;;22.00;69.10;;;;;;5055117;28;20485;-64
2021/12/24 09:44:24;;;;;;;12.93;5.10;;;21.90;68.00;;;;;;5055117;28;20847;-63
2021/12/24 09:46:51;;;;;;;9.60;7.50;;;21.90;69.00;;;;;;5055554;28;20437;-63
2021/12/24 09:49:20;;;;;;;15.87;6.37;;;21.50;71.20;;;;;;5055470;28;20433;-63
2021/12/24 09:51:51;;;;;;;4.13;3.80;;;21.00;71.60;;;;;;5055757;28;20936;-63
2021/12/24 09:54:19;;;;;;;4.83;3.67;;;21.00;71.00;;;;;;5055479;28;20491;-63
2021/12/24 09:56:47;;;;;;;10.30;7.77;;;21.10;70.30;;;;;;5055740;28;20433;-63
2021/12/24 09:59:14;;;;;;;7.30;4.80;;;21.30;70.70;;;;;;5055340;28;20902;-63
2021/12/24 10:01:43;;;;;;;9.27;4.83;;;21.30;70.70;;;;;;5055119;28;20481;-63
2021/12/24 10:04:12;;;;;;;4.50;4.07;;;21.20;70.50;;;;;;5054502;28;20936;-63
2021/12/24 10:06:51;;;;;;;6.97;4.20;;;21.20;70.20;;;;;;5055306;28;20925;-63
2021/12/24 10:09:17;;;;;;;5.80;4.20;;;21.30;70.40;;;;;;5055076;28;20968;-63
2021/12/24 10:11:50;;;;;;;9.60;4.17;;;21.20;70.60;;;;;;5055133;28;20438;-63
2021/12/24 10:14:19;;;;;;;6.80;4.10;;;21.20;70.00;;;;;;5055247;28;20433;-63
2021/12/24 10:16:48;;;;;;;3.37;3.07;;;21.30;69.50;;;;;;5055051;28;20471;-63
2021/12/24 10:19:15;;;;;;;2.77;2.57;;;21.40;68.80;;;;;;5055003;28;20924;-63
2021/12/24 10:21:45;;;;;;;4.03;3.20;;;21.50;68.50;;;;;;5054849;28;20489;-63
2021/12/24 10:24:14;;;;;;;3.07;2.83;;;21.70;68.30;;;;;;5054942;28;20486;-63
2021/12/24 10:26:45;;;;;;;2.60;2.40;;;21.70;68.10;;;;;;5054775;28;20449;-63
2021/12/24 10:29:14;;;;;;;4.17;2.50;;;21.80;68.40;;;;;;5054797;28;20484;-63
2021/12/24 10:31:44;;;;;;;2.90;2.70;;;21.90;68.70;;;;;;5054695;28;20484;-63
2021/12/24 10:34:23;;;;;;;2.23;2.10;;;21.90;68.80;;;;;;5054609;28;20433;-63
2021/12/24 10:37:02;;;;;;;3.67;2.63;;;22.00;68.50;;;;;;5054690;28;20444;-63
2021/12/24 10:39:31;;;;;;;2.90;2.70;;;22.00;68.50;;;;;;5054230;28;20472;-64
2021/12/24 10:42:00;;;;;;;3.73;2.83;;;22.00;68.30;;;;;;5054470;28;20507;-63
2021/12/24 10:44:30;;;;;;;2.80;2.40;;;22.10;68.10;;;;;;5054304;28;20434;-63
2021/12/24 10:47:04;;;;;;;2.77;2.57;;;22.10;67.90;;;;;;5054640;28;20434;-63
2021/12/24 10:49:55;;;;;;;9.60;6.27;;;22.10;67.90;;;;;;5054353;28;20444;-63
2021/12/24 10:55:12;;;;;;;4.40;3.20;;;21.80;68.50;;;;;;5054402;28;20920;-64
2021/12/24 10:57:42;;;;;;;5.47;2.50;;;21.80;68.50;;;;;;5054320;28;20461;-64
2021/12/24 11:00:17;;;;;;;5.30;2.67;;;21.80;68.60;;;;;;5054219;28;20441;-63
2021/12/24 11:02:44;;;;;;;9.03;6.87;;;21.80;68.60;;;;;;5054166;28;20480;-63
2021/12/24 11:05:24;;;;;;;9.93;5.87;;;21.70;70.90;;;;;;5054152;28;20513;-63
2021/12/24 11:07:53;;;;;;;4.90;3.30;;;21.20;70.30;;;;;;5054367;28;20437;-63
2021/12/24 11:10:22;;;;;;;3.20;2.73;;;21.10;69.90;;;;;;5053859;28;20465;-64
2021/12/24 11:12:50;;;;;;;3.20;2.90;;;21.20;69.50;;;;;;5054268;28;20434;-64
2021/12/24 11:15:26;;;;;;;3.20;3.00;;;21.30;69.40;;;;;;5053972;28;20846;-64
2021/12/24 11:17:57;;;;;;;3.47;3.17;;;21.40;69.60;;;;;;5053996;28;20512;-64
2021/12/24 11:20:25;;;;;;;5.10;3.53;;;21.40;69.90;;;;;;5053774;28;20445;-63
2021/12/24 11:23:03;;;;;;;3.43;3.13;;;21.40;70.30;;;;;;5053712;28;20492;-63
2021/12/24 11:25:32;;;;;;;5.93;3.97;;;21.50;69.50;;;;;;5053703;28;20440;-63
2021/12/24 11:27:59;;;;;;;3.10;2.77;;;21.50;69.60;;;;;;5053482;28;20437;-63
2021/12/24 11:30:27;;;;;;;4.27;2.70;;;21.50;69.10;;;;;;5051825;28;20444;-63
2021/12/24 11:32:54;;;;;;;24.90;5.97;;;21.50;68.90;;;;;;5061176;28;20444;-64
2021/12/24 11:35:21;;;;;;;4.53;4.10;;;21.60;69.50;;;;;;5072662;28;20966;-65
2021/12/24 11:37:51;;;;;;;3.50;2.60;;;21.60;69.20;;;;;;5071335;28;20797;-69
2021/12/24 11:40:21;;;;;;;5.50;2.40;;;21.70;68.80;;;;;;5072199;28;20567;-64
2021/12/24 11:42:52;;;;;;;3.40;3.10;;;21.80;68.40;;;;;;5072494;28;20488;-64
2021/12/24 11:45:23;;;;;;;6.73;3.10;;;21.80;68.10;;;;;;5072699;28;20441;-64
2021/12/24 11:47:50;;;;;;;3.30;2.37;;;21.80;67.90;;;;;;5072485;28;20470;-66
2021/12/24 11:50:17;;;;;;;3.00;2.70;;;21.90;68.00;;;;;;5072461;28;20433;-68
2021/12/24 11:52:46;;;;;;;3.23;2.87;;;21.80;67.70;;;;;;5060913;28;20967;-68
2021/12/24 11:55:13;;;;;;;3.07;2.77;;;21.90;67.90;;;;;;5058474;28;20457;-62
2021/12/24 11:57:55;;;;;;;2.40;2.20;;;21.90;67.80;;;;;;5073192;28;20927;-64
2021/12/24 12:00:25;;;;;;;3.07;2.60;;;21.90;67.70;;;;;;5073196;28;20954;-64
2021/12/24 12:02:53;;;;;;;3.80;2.50;;;22.00;68.20;;;;;;5073245;28;20485;-63
2021/12/24 12:05:24;;;;;;;3.30;2.70;;;21.90;68.00;;;;;;5073499;28;20443;-68
2021/12/24 12:07:52;;;;;;;3.03;2.80;;;21.90;68.00;;;;;;5073371;28;20449;-65
2021/12/24 12:10:54;;;;;;;2.67;2.40;;;21.90;68.10;;;;;;5073283;28;20519;-63
2021/12/24 12:13:40;;;;;;;3.60;2.93;;;22.00;67.90;;;;;;5073179;28;20797;-63
2021/12/24 12:16:09;;;;;;;2.87;2.67;;;21.90;68.10;;;;;;5073123;28;20437;-63
2021/12/24 12:18:44;;;;;;;2.97;2.70;;;21.90;68.10;;;;;;5072978;28;20495;-63
2021/12/24 12:21:13;;;;;;;4.87;2.83;;;21.90;68.10;;;;;;5073045;28;20493;-64
2021/12/24 12:23:54;;;;;;;5.80;5.30;;;21.90;67.90;;;;;;5072928;28;20484;-63
2021/12/24 12:26:33;;;;;;;14.97;3.90;;;21.80;69.50;;;;;;5073711;28;20432;-64
2021/12/24 12:29:21;;;;;;;3.53;3.23;;;21.70;69.00;;;;;;5077065;28;20432;-63
2021/12/24 12:31:51;;;;;;;3.30;3.03;;;21.70;68.90;;;;;;5077182;28;20459;-64
2021/12/24 12:34:49;;;;;;;10.83;6.30;;;21.60;68.50;;;;;;5077177;28;20436;-63
2021/12/24 12:37:17;;;;;;;6.63;3.47;;;21.50;70.50;;;;;;5075595;28;20446;-63
2021/12/24 12:39:44;;;;;;;3.77;3.47;;;21.40;69.50;;;;;;5076302;28;20473;-63
2021/12/24 12:42:13;;;;;;;3.50;3.17;;;21.40;69.20;;;;;;5076684;28;20467;-63
2021/12/24 12:44:45;;;;;;;3.93;3.37;;;21.50;69.00;;;;;;5076818;28;20447;-63
2021/12/24 12:47:15;;;;;;;3.50;3.20;;;21.50;68.70;;;;;;5076920;28;20497;-64
2021/12/24 12:49:42;;;;;;;3.13;2.93;;;21.70;68.50;;;;;;5076650;28;20804;-64
2021/12/24 12:52:16;;;;;;;3.10;2.90;;;21.80;68.20;;;;;;5076748;28;20437;-64
2021/12/24 12:54:45;;;;;;;3.40;3.10;;;21.80;68.00;;;;;;5076602;28;20439;-64
2021/12/24 12:57:24;;;;;;;3.00;2.80;;;21.80;67.70;;;;;;5076547;28;20810;-64
2021/12/24 13:00:22;;;;;;;2.87;2.50;;;21.80;67.60;;;;;;5076268;28;20437;-64
2021/12/24 13:03:10;;;;;;;5.37;3.07;;;21.90;67.80;;;;;;5076491;28;20488;-64
2021/12/24 13:06:04;;;;;;;3.70;3.40;;;21.90;67.80;;;;;;5076527;28;20962;-64
2021/12/24 13:08:33;;;;;;;4.20;2.90;;;21.90;67.70;;;;;;5076376;28;20491;-63
2021/12/24 13:11:02;;;;;;;3.10;2.90;;;21.80;67.60;;;;;;5076141;28;20490;-63
2021/12/24 13:13:30;;;;;;;3.30;3.00;;;21.90;67.80;;;;;;5076558;28;20464;-62
2021/12/24 13:15:58;;;;;;;4.30;3.17;;;22.00;67.60;;;;;;5076231;28;20791;-63
2021/12/24 13:18:29;;;;;;;3.30;2.97;;;22.00;67.40;;;;;;5076245;28;20444;-63
2021/12/24 13:23:43;;;;;;;2.70;2.50;;;22.20;67.00;;;;;;5076330;28;20969;-63
2021/12/24 13:26:17;;;;;;;3.23;2.93;;;22.20;66.80;;;;;;5076183;28;20445;-63
2021/12/24 13:28:59;;;;;;;3.90;3.50;;;22.30;66.80;;;;;;5075964;28;20494;-63
2021/12/24 13:31:28;;;;;;;5.00;3.13;;;22.30;67.90;;;;;;5075627;28;20949;-63
2021/12/24 13:33:55;;;;;;;3.27;2.80;;;22.30;66.80;;;;;;5075971;28;20441;-63
2021/12/24 13:36:26;;;;;;;3.23;2.93;;;22.40;66.60;;;;;;5075780;28;20455;-63
2021/12/24 13:38:53;;;;;;;3.23;2.93;;;22.40;67.40;;;;;;5074467;28;20451;-64
2021/12/24 13:41:24;;;;;;;3.40;3.10;;;22.40;66.70;;;;;;5075593;28;20472;-63
2021/12/24 13:43:51;;;;;;;3.83;3.20;;;22.40;66.50;;;;;;5075806;28;20491;-63
2021/12/24 13:46:18;;;;;;;5.07;3.40;;;22.40;66.70;;;;;;5075624;28;20443;-63
2021/12/24 13:49:15;;;;;;;2.83;2.63;;;22.40;66.70;;;;;;5075574;28;20927;-63
2021/12/24 13:54:35;;;;;;;8.17;3.83;;;22.50;66.40;;;;;;5075644;28;20477;-63
2021/12/24 13:57:03;;;;;;;5.13;3.43;;;22.50;66.70;;;;;;5075481;28;20518;-63
2021/12/24 13:59:31;;;;;;;4.60;3.00;;;22.50;66.60;;;;;;5075639;28;20436;-63
2021/12/24 14:02:00;;;;;;;4.00;3.70;;;22.50;66.70;;;;;;5075355;28;20955;-63
2021/12/24 14:04:28;;;;;;;4.83;3.20;;;22.50;66.70;;;;;;5075408;28;20773;-64
2021/12/24 14:06:58;;;;;;;4.63;3.63;;;22.60;66.90;;;;;;5075264;28;20438;-63
2021/12/24 14:09:29;;;;;;;2.60;2.40;;;22.60;66.50;;;;;;5075161;28;20453;-63
2021/12/24 14:11:57;;;;;;;3.00;2.80;;;22.50;65.90;;;;;;5075460;28;20440;-63
2021/12/24 14:14:28;;;;;;;2.60;2.40;;;22.60;66.00;;;;;;5075299;28;20463;-63
2021/12/24 14:17:19;;;;;;;8.03;2.80;;;22.60;65.80;;;;;;5075028;28;20432;-63
2021/12/24 14:19:49;;;;;;;2.97;2.77;;;22.60;65.80;;;;;;5074997;28;20784;-63
2021/12/24 14:22:18;;;;;;;3.40;3.10;;;22.60;65.70;;;;;;5074713;28;20444;-63
2021/12/24 14:24:53;;;;;;;3.33;3.03;;;22.60;65.70;;;;;;5074933;28;20924;-63
2021/12/24 14:27:21;;;;;;;3.13;2.90;;;22.70;66.00;;;;;;5074757;28;20440;-63
2021/12/24 14:29:54;;;;;;;4.33;3.03;;;22.60;66.10;;;;;;5074586;28;20444;-63
2021/12/24 14:32:29;;;;;;;4.83;3.00;;;22.60;66.10;;;;;;5074850;28;20475;-63